createdAt,value
2022-10-12T00:02:18.527Z,7.18
2022-10-12T00:09:03.941Z,7.07
2022-10-12T00:15:52.257Z,6.75
2022-10-12T00:22:37.755Z,6.30
2022-10-12T00:29:23.134Z,6.60
2022-10-12T00:36:22.279Z,6.88
2022-10-12T00:43:07.657Z,6.80
2022-10-12T00:49:59.937Z,6.65
2022-10-12T00:56:50.604Z,6.90
2022-10-12T01:03:36.524Z,7.45
2022-10-12T01:10:22.502Z,7.28
2022-10-12T01:17:25.247Z,7.53
2022-10-12T01:24:42.516Z,7.03
2022-10-12T01:31:37.642Z,7.50
2022-10-12T01:38:46.302Z,7.43
2022-10-12T01:45:31.653Z,7.68
2022-10-12T01:52:31.820Z,7.43
2022-10-12T01:59:24.799Z,7.50
2022-10-12T02:06:14.388Z,7.30
2022-10-12T02:13:10.110Z,7.85
2022-10-12T02:20:00.812Z,7.53
2022-10-12T02:26:50.980Z,7.65
2022-10-12T02:33:45.456Z,7.35
2022-10-12T02:40:39.328Z,7.78
2022-10-12T03:01:17.018Z,8.88
2022-10-12T03:08:02.538Z,7.80
2022-10-12T03:14:47.888Z,8.13
2022-10-12T03:21:35.867Z,8.73
2022-10-12T03:28:21.489Z,7.88
2022-10-12T03:35:07.082Z,7.95
2022-10-12T03:41:55.046Z,9.02
2022-10-12T03:48:40.601Z,8.38
2022-10-12T03:55:26.250Z,7.75
2022-10-12T04:02:16.830Z,8.50
2022-10-12T04:09:02.708Z,8.20
2022-10-12T04:15:48.145Z,8.57
2022-10-12T04:22:36.440Z,8.07
2022-10-12T04:29:22.210Z,7.80
2022-10-12T04:36:08.171Z,8.63
2022-10-12T04:42:56.230Z,8.50
2022-10-12T04:49:41.630Z,7.85
2022-10-12T04:56:26.984Z,8.15
2022-10-12T05:03:14.943Z,8.05
2022-10-12T05:10:00.310Z,8.25
2022-10-12T05:16:49.571Z,8.55
2022-10-12T05:23:37.549Z,8.65
2022-10-12T05:30:22.909Z,8.80
2022-10-12T05:37:08.458Z,9.32
2022-10-12T05:43:56.476Z,9.25
2022-10-12T05:50:41.821Z,8.60
2022-10-12T05:57:27.260Z,8.60
2022-10-12T06:04:15.388Z,8.85
2022-10-12T06:11:00.923Z,8.95
2022-10-12T06:17:46.276Z,8.50
2022-10-12T06:24:34.282Z,9.10
2022-10-12T06:31:19.640Z,8.73
2022-10-12T06:38:05.704Z,8.73
2022-10-12T06:44:53.882Z,9.18
2022-10-12T06:51:39.413Z,9.25
2022-10-12T06:58:24.783Z,10.00
2022-10-12T07:05:13.569Z,9.27
2022-10-12T07:11:59.264Z,9.75
2022-10-12T07:18:44.713Z,10.05
2022-10-12T07:25:33.231Z,9.98
2022-10-12T07:32:18.816Z,10.63
2022-10-12T07:39:05.556Z,10.95
2022-10-12T07:45:53.613Z,10.35
2022-10-12T07:52:39.268Z,10.38
2022-10-12T07:59:25.038Z,10.63
2022-10-12T08:06:18.943Z,10.25
2022-10-12T08:13:04.370Z,10.38
2022-10-12T08:19:49.801Z,10.10
2022-10-12T08:26:37.807Z,10.10
2022-10-12T08:33:23.824Z,10.23
2022-10-12T08:40:12.356Z,9.80
2022-10-12T08:47:06.057Z,9.27
2022-10-12T08:53:57.386Z,10.75
2022-10-12T09:00:42.813Z,9.88
2022-10-12T09:07:34.884Z,9.32
2022-10-12T09:14:25.969Z,9.35
2022-10-12T09:21:16.832Z,9.70
2022-10-12T09:28:18.426Z,9.90
2022-10-12T09:35:04.187Z,9.80
2022-10-12T09:41:51.620Z,10.63
2022-10-12T09:48:40.540Z,10.15
2022-10-12T09:55:30.746Z,9.82
2022-10-12T10:02:20.748Z,9.93
2022-10-12T10:09:16.084Z,9.98
2022-10-12T10:16:08.523Z,9.02
2022-10-12T10:22:53.901Z,9.30
2022-10-12T10:29:45.445Z,9.88
2022-10-12T10:36:31.609Z,9.45
2022-10-12T10:43:27.537Z,10.15
2022-10-12T10:50:29.664Z,9.40
2022-10-12T10:57:21.213Z,9.90
2022-10-12T11:04:11.429Z,9.23
2022-10-12T11:11:05.095Z,9.93
2022-10-12T11:17:55.235Z,8.93
2022-10-12T11:24:48.375Z,10.23
2022-10-12T11:31:43.001Z,10.48
2022-10-12T11:38:34.869Z,10.80
2022-10-12T11:45:27.635Z,10.52
2022-10-12T11:52:16.110Z,11.10
2022-10-12T11:59:08.156Z,10.68
2022-10-12T12:05:53.516Z,10.73
2022-10-12T12:13:22.713Z,11.18
2022-10-12T12:20:58.754Z,11.95
2022-10-12T12:27:50.424Z,11.60
2022-10-12T12:34:36.301Z,12.80
2022-10-12T12:41:23.935Z,10.87
2022-10-12T12:48:14.413Z,12.00
2022-10-12T12:55:46.142Z,11.38
2022-10-12T13:03:21.398Z,11.60
2022-10-12T13:10:42.294Z,11.48
2022-10-12T13:17:53.684Z,11.40
2022-10-12T13:24:50.232Z,12.48
2022-10-12T13:38:29.763Z,12.27
2022-10-12T13:45:20.207Z,11.93
2022-10-12T13:52:31.891Z,12.00
2022-10-12T13:59:23.272Z,11.77
2022-10-12T14:06:09.797Z,11.80
2022-10-12T14:12:59.558Z,12.20
2022-10-12T14:19:51.470Z,12.73
2022-10-12T14:26:42.612Z,13.27
2022-10-12T14:33:31.678Z,11.93
2022-10-12T14:40:35.932Z,13.23
2022-10-12T14:47:25.627Z,12.65
2022-10-12T14:54:15.714Z,12.00
2022-10-12T15:01:01.194Z,11.73
2022-10-12T15:07:47.616Z,12.73
2022-10-12T15:14:35.654Z,12.48
2022-10-12T15:21:22.054Z,12.40
2022-10-12T15:28:08.867Z,11.55
2022-10-12T15:34:56.808Z,12.52
2022-10-12T15:41:42.436Z,11.45
2022-10-12T15:48:28.680Z,12.37
2022-10-12T16:02:13.037Z,11.35
2022-10-12T16:08:58.452Z,11.00
2022-10-12T16:15:47.287Z,12.60
2022-10-12T16:22:32.872Z,12.45
2022-10-12T16:29:18.269Z,13.35
2022-10-12T16:36:13.520Z,12.83
2022-10-12T16:42:59.131Z,13.57
2022-10-12T16:49:44.890Z,12.23
2022-10-12T16:56:37.087Z,13.80
2022-10-12T17:03:25.046Z,14.90
2022-10-12T17:10:11.902Z,12.77
2022-10-12T17:17:00.173Z,14.07
2022-10-12T17:23:46.257Z,15.55
2022-10-12T17:30:31.707Z,15.53
2022-10-12T17:37:21.202Z,13.90
2022-10-12T17:44:06.742Z,13.40
2022-10-12T17:50:52.694Z,16.43
2022-10-12T17:57:40.804Z,15.68
2022-10-12T18:04:26.220Z,15.32
2022-10-12T18:11:11.925Z,13.93
2022-10-12T18:17:59.866Z,20.33
2022-10-12T18:24:45.329Z,14.48
2022-10-12T18:31:32.245Z,14.10
2022-10-12T18:38:20.544Z,15.85
2022-10-12T18:45:06.522Z,12.82
2022-10-12T18:51:53.033Z,12.63
2022-10-12T18:58:42.024Z,12.27
2022-10-12T19:05:27.769Z,12.80
2022-10-12T19:12:16.787Z,12.73
2022-10-12T19:19:07.527Z,12.25
2022-10-12T19:25:52.889Z,12.93
2022-10-12T19:32:38.269Z,13.60
2022-10-12T19:39:27.361Z,14.73
2022-10-12T19:46:15.735Z,15.70
2022-10-12T19:53:01.073Z,14.45
2022-10-12T19:59:49.033Z,15.10
2022-10-12T20:06:34.415Z,14.57
2022-10-12T20:13:19.769Z,13.70
2022-10-12T20:20:09.087Z,13.05
2022-10-12T20:26:54.465Z,13.38
2022-10-12T20:33:42.264Z,13.15
2022-10-12T20:40:30.920Z,13.55
2022-10-12T20:47:16.548Z,12.93
2022-10-12T20:54:03.062Z,13.47
2022-10-12T21:07:37.577Z,12.20
2022-10-12T21:14:26.322Z,13.13
2022-10-12T21:21:17.641Z,12.02
2022-10-12T21:28:02.979Z,12.32
2022-10-12T21:34:48.468Z,12.65
2022-10-12T21:41:36.400Z,12.48
2022-10-12T21:48:21.771Z,12.73
2022-10-12T21:55:08.283Z,13.35
2022-10-12T22:08:41.458Z,14.85
2022-10-12T22:15:31.715Z,15.32
2022-10-12T22:22:26.161Z,13.95
2022-10-12T22:29:12.064Z,12.73
2022-10-12T22:35:58.385Z,13.83
2022-10-12T22:42:46.325Z,13.27
2022-10-12T22:49:31.934Z,12.13
2022-10-12T22:56:20.010Z,13.18
2022-10-12T23:03:09.201Z,12.57
2022-10-12T23:09:54.584Z,12.75
2022-10-12T23:16:40.511Z,12.70
2022-10-12T23:23:28.473Z,12.93
2022-10-12T23:30:14.657Z,12.88
2022-10-12T23:37:00.118Z,12.27
2022-10-12T23:43:48.865Z,11.63
2022-10-12T23:50:34.273Z,12.85
2022-10-12T23:57:45.254Z,11.48
